Airfield :
LOGIN :

Register | Disclaimer

   EN    FR    IT 

 










Legend :    VFR   Marginal VFR   IFR   Intensive IFR   Very Intensive IFR
Visi :
Ceiling :
>= 8 km
>= 3000ft
5 to 8 km
1000 to 3000 ft
1500m to 5 km
500 to 1000 ft
800 to 1500m
200 to 500 ft
< 800m
< 200 ft
Symbols :   Thunderstorms  Fog  Heavy snow  Heavy precipitations  Wind > 20 kt
SIGMETs :     Misc.  Thunderstorms  Icing  Turbulence  Mountain Waves  Volcanic Ashes






- Airport Elevation : 233 ft
- IATA code : REU


LERS - Reus Tarragona

CURRENT METAR :
  • 021530Z 17004KT 100V210 9999 FEW042 12/10 Q1012

EXPIRED METARs :
  • 021500Z 17005KT 120V210 9999 FEW042 13/10 Q1012
  • 021430Z 18006KT 130V220 9999 FEW042 13/11 Q1012
  • 021400Z 18004KT 140V230 9999 SCT042 12/12 Q1012
  • 021330Z 16005KT 100V200 9999 DZ SCT040 BKN050 11/11 Q1012
  • 021300Z 17003KT 120V220 9999 -DZ SCT030 BKN045 12/12 Q1012
  • 021230Z VRB02KT 9999 -DZ BKN030 BKN040 12/12 Q1012

TAF TAF LERS
Valid from the 02 at 15:00 until the 03 at 15:00 UTC


021400Z 0215/0315 VRB04KT 9999 BKN030 TX16/0312Z TN07/0306Z
PROB40
TEMPO 0215/0222 4000 SHRA BKN012 SCT020TCU
BECMG 0304/0306 29012KT



MET'MAP, your aeronautical weather chart ! - Copyright ORBIFLY December 2007 - Disclaimer

ORBIFLY MET'MAP TEAM :

Programming & Development : Alexandra Zaïnal
Concept & original design : Baudouin d'Aumeries
Assistance for programming : Marc-Olivier Méhu
Technical & hardware support : Manuel Goepfert

Contact : metmap@orbifly.com




SOURCES & CREDITS :

   NOAA